sensor_id;sensor_type;location;lat;lon;timestamp;temperature;humidity
9980;DHT22;5030;51.532;6.766;2023-03-16T00:00:46;2.00;99.90
9980;DHT22;5030;51.532;6.766;2023-03-16T00:03:13;2.00;99.90
9980;DHT22;5030;51.532;6.766;2023-03-16T00:05:49;2.00;99.90
9980;DHT22;5030;51.532;6.766;2023-03-16T00:08:16;1.90;99.90
9980;DHT22;5030;51.532;6.766;2023-03-16T00:10:42;1.90;99.90
9980;DHT22;5030;51.532;6.766;2023-03-16T00:13:20;2.00;99.90
9980;DHT22;5030;51.532;6.766;2023-03-16T00:15:58;2.20;99.90
9980;DHT22;5030;51.532;6.766;2023-03-16T00:18:25;2.30;99.90
9980;DHT22;5030;51.532;6.766;2023-03-16T00:20:59;2.60;99.90
9980;DHT22;5030;51.532;6.766;2023-03-16T00:23:27;2.80;99.90
9980;DHT22;5030;51.532;6.766;2023-03-16T00:25:57;2.80;99.90
9980;DHT22;5030;51.532;6.766;2023-03-16T00:28:26;3.00;99.90
9980;DHT22;5030;51.532;6.766;2023-03-16T00:30:52;2.90;99.90
9980;DHT22;5030;51.532;6.766;2023-03-16T00:33:23;2.90;99.90
9980;DHT22;5030;51.532;6.766;2023-03-16T00:35:49;3.10;99.90
9980;DHT22;5030;51.532;6.766;2023-03-16T00:38:18;3.10;99.90
9980;DHT22;5030;51.532;6.766;2023-03-16T00:40:45;3.20;99.90
9980;DHT22;5030;51.532;6.766;2023-03-16T00:43:11;3.40;99.90
9980;DHT22;5030;51.532;6.766;2023-03-16T00:45:36;3.40;99.90
9980;DHT22;5030;51.532;6.766;2023-03-16T00:48:02;3.30;99.90
9980;DHT22;5030;51.532;6.766;2023-03-16T00:50:28;3.40;99.90
9980;DHT22;5030;51.532;6.766;2023-03-16T00:52:54;3.40;99.90
9980;DHT22;5030;51.532;6.766;2023-03-16T00:55:19;3.50;99.90
9980;DHT22;5030;51.532;6.766;2023-03-16T00:57:45;3.50;99.90
9980;DHT22;5030;51.532;6.766;2023-03-16T01:00:12;3.50;99.90
9980;DHT22;5030;51.532;6.766;2023-03-16T01:02:42;3.60;99.90
9980;DHT22;5030;51.532;6.766;2023-03-16T01:05:10;3.60;99.90
9980;DHT22;5030;51.532;6.766;2023-03-16T01:07:38;3.70;99.90
9980;DHT22;5030;51.532;6.766;2023-03-16T01:10:04;3.70;99.90
9980;DHT22;5030;51.532;6.766;2023-03-16T01:12:30;3.70;99.90
9980;DHT22;5030;51.532;6.766;2023-03-16T01:14:56;3.80;99.90
9980;DHT22;5030;51.532;6.766;2023-03-16T01:17:22;3.80;99.90
9980;DHT22;5030;51.532;6.766;2023-03-16T01:19:48;3.60;99.90
9980;DHT22;5030;51.532;6.766;2023-03-16T01:22:14;3.70;99.90
9980;DHT22;5030;51.532;6.766;2023-03-16T01:24:41;3.60;99.90
9980;DHT22;5030;51.532;6.766;2023-03-16T01:27:09;3.60;99.90
9980;DHT22;5030;51.532;6.766;2023-03-16T01:29:35;3.60;99.90
9980;DHT22;5030;51.532;6.766;2023-03-16T01:32:01;3.50;99.90
9980;DHT22;5030;51.532;6.766;2023-03-16T01:34:29;3.60;99.90
9980;DHT22;5030;51.532;6.766;2023-03-16T01:36:55;3.60;99.90
9980;DHT22;5030;51.532;6.766;2023-03-16T01:39:21;3.50;99.90
9980;DHT22;5030;51.532;6.766;2023-03-16T01:41:47;3.70;99.90
9980;DHT22;5030;51.532;6.766;2023-03-16T01:44:15;3.80;99.90
9980;DHT22;5030;51.532;6.766;2023-03-16T01:46:41;3.60;99.90
9980;DHT22;5030;51.532;6.766;2023-03-16T01:49:17;3.70;99.90
9980;DHT22;5030;51.532;6.766;2023-03-16T01:57:06;3.50;99.90
9980;DHT22;5030;51.532;6.766;2023-03-16T01:59:41;3.40;99.90
9980;DHT22;5030;51.532;6.766;2023-03-16T02:02:10;3.40;99.90
9980;DHT22;5030;51.532;6.766;2023-03-16T02:07:12;3.60;99.90
9980;DHT22;5030;51.532;6.766;2023-03-16T02:09:43;3.70;99.90
9980;DHT22;5030;51.532;6.766;2023-03-16T02:12:14;3.70;99.90
9980;DHT22;5030;51.532;6.766;2023-03-16T02:14:47;3.80;99.90
9980;DHT22;5030;51.532;6.766;2023-03-16T02:17:15;3.70;99.90
9980;DHT22;5030;51.532;6.766;2023-03-16T02:22:23;3.80;99.90
9980;DHT22;5030;51.532;6.766;2023-03-16T02:24:53;3.90;99.90
9980;DHT22;5030;51.532;6.766;2023-03-16T02:30:13;4.00;99.90
9980;DHT22;5030;51.532;6.766;2023-03-16T02:32:40;3.90;99.90
9980;DHT22;5030;51.532;6.766;2023-03-16T02:35:07;3.90;99.90
9980;DHT22;5030;51.532;6.766;2023-03-16T02:37:33;4.00;99.90
9980;DHT22;5030;51.532;6.766;2023-03-16T02:43:29;3.90;99.90
9980;DHT22;5030;51.532;6.766;2023-03-16T02:45:42;4.00;99.90
9980;DHT22;5030;51.532;6.766;2023-03-16T02:48:13;4.10;99.90
9980;DHT22;5030;51.532;6.766;2023-03-16T02:50:49;4.00;99.90
9980;DHT22;5030;51.532;6.766;2023-03-16T02:53:16;4.00;99.90
9980;DHT22;5030;51.532;6.766;2023-03-16T02:55:42;4.00;99.90
9980;DHT22;5030;51.532;6.766;2023-03-16T02:58:09;4.00;99.90
9980;DHT22;5030;51.532;6.766;2023-03-16T03:00:36;4.00;99.90
9980;DHT22;5030;51.532;6.766;2023-03-16T03:03:03;4.00;99.90
9980;DHT22;5030;51.532;6.766;2023-03-16T03:05:28;4.00;99.90
9980;DHT22;5030;51.532;6.766;2023-03-16T03:07:54;4.00;99.90
9980;DHT22;5030;51.532;6.766;2023-03-16T03:10:20;4.10;99.90
9980;DHT22;5030;51.532;6.766;2023-03-16T03:12:46;4.10;99.90
9980;DHT22;5030;51.532;6.766;2023-03-16T03:15:15;4.00;99.50
9980;DHT22;5030;51.532;6.766;2023-03-16T03:17:41;4.10;99.90
9980;DHT22;5030;51.532;6.766;2023-03-16T03:20:08;4.20;99.90
9980;DHT22;5030;51.532;6.766;2023-03-16T03:22:38;4.30;99.40
9980;DHT22;5030;51.532;6.766;2023-03-16T03:25:04;4.40;97.60
9980;DHT22;5030;51.532;6.766;2023-03-16T03:27:30;4.40;97.20
9980;DHT22;5030;51.532;6.766;2023-03-16T03:29:57;4.40;97.60
9980;DHT22;5030;51.532;6.766;2023-03-16T03:32:23;4.20;99.90
9980;DHT22;5030;51.532;6.766;2023-03-16T03:34:49;4.10;99.90
9980;DHT22;5030;51.532;6.766;2023-03-16T03:37:14;4.20;98.20
9980;DHT22;5030;51.532;6.766;2023-03-16T03:39:41;4.10;99.90
9980;DHT22;5030;51.532;6.766;2023-03-16T03:42:07;4.20;99.30
9980;DHT22;5030;51.532;6.766;2023-03-16T03:44:33;4.20;98.50
9980;DHT22;5030;51.532;6.766;2023-03-16T03:47:02;4.40;99.90
9980;DHT22;5030;51.532;6.766;2023-03-16T03:49:28;4.30;99.80
9980;DHT22;5030;51.532;6.766;2023-03-16T03:51:54;4.30;98.90
9980;DHT22;5030;51.532;6.766;2023-03-16T03:54:24;4.20;99.30
9980;DHT22;5030;51.532;6.766;2023-03-16T03:56:50;4.20;99.90
9980;DHT22;5030;51.532;6.766;2023-03-16T03:59:16;4.30;99.60
9980;DHT22;5030;51.532;6.766;2023-03-16T04:01:42;4.30;98.10
9980;DHT22;5030;51.532;6.766;2023-03-16T04:04:08;4.30;99.80
9980;DHT22;5030;51.532;6.766;2023-03-16T04:06:33;4.20;99.90
9980;DHT22;5030;51.532;6.766;2023-03-16T04:08:59;4.40;99.00
9980;DHT22;5030;51.532;6.766;2023-03-16T04:11:25;4.30;98.60
9980;DHT22;5030;51.532;6.766;2023-03-16T04:13:51;4.30;99.90
9980;DHT22;5030;51.532;6.766;2023-03-16T04:16:18;4.40;99.90
9980;DHT22;5030;51.532;6.766;2023-03-16T04:18:44;4.40;99.90
9980;DHT22;5030;51.532;6.766;2023-03-16T04:21:15;4.20;99.90
9980;DHT22;5030;51.532;6.766;2023-03-16T04:23:42;4.40;99.90
9980;DHT22;5030;51.532;6.766;2023-03-16T04:26:08;4.50;99.90
9980;DHT22;5030;51.532;6.766;2023-03-16T04:28:33;4.40;99.90
9980;DHT22;5030;51.532;6.766;2023-03-16T04:31:03;4.50;99.90
9980;DHT22;5030;51.532;6.766;2023-03-16T04:33:31;4.50;99.90
9980;DHT22;5030;51.532;6.766;2023-03-16T04:35:58;4.60;99.90
9980;DHT22;5030;51.532;6.766;2023-03-16T04:38:23;4.60;99.90
9980;DHT22;5030;51.532;6.766;2023-03-16T04:40:49;4.70;99.90
9980;DHT22;5030;51.532;6.766;2023-03-16T04:43:15;4.70;99.90
9980;DHT22;5030;51.532;6.766;2023-03-16T04:45:41;4.70;99.30
9980;DHT22;5030;51.532;6.766;2023-03-16T04:48:07;4.90;97.40
9980;DHT22;5030;51.532;6.766;2023-03-16T04:50:32;4.80;98.30
9980;DHT22;5030;51.532;6.766;2023-03-16T04:52:58;4.70;98.50
9980;DHT22;5030;51.532;6.766;2023-03-16T04:55:24;4.80;99.70
9980;DHT22;5030;51.532;6.766;2023-03-16T04:57:49;4.70;98.30
9980;DHT22;5030;51.532;6.766;2023-03-16T05:00:16;4.80;99.00
9980;DHT22;5030;51.532;6.766;2023-03-16T05:02:47;4.80;98.50
9980;DHT22;5030;51.532;6.766;2023-03-16T05:05:13;4.80;98.90
9980;DHT22;5030;51.532;6.766;2023-03-16T05:07:40;4.70;98.40
9980;DHT22;5030;51.532;6.766;2023-03-16T05:10:07;4.70;99.90
9980;DHT22;5030;51.532;6.766;2023-03-16T05:12:33;4.70;99.90
9980;DHT22;5030;51.532;6.766;2023-03-16T05:14:59;4.70;99.90
9980;DHT22;5030;51.532;6.766;2023-03-16T05:17:24;4.70;99.90
9980;DHT22;5030;51.532;6.766;2023-03-16T05:19:50;4.60;99.90
9980;DHT22;5030;51.532;6.766;2023-03-16T05:22:16;4.60;99.90
9980;DHT22;5030;51.532;6.766;2023-03-16T05:24:41;4.70;99.90
9980;DHT22;5030;51.532;6.766;2023-03-16T05:27:07;4.60;99.90
9980;DHT22;5030;51.532;6.766;2023-03-16T05:29:33;4.60;99.90
9980;DHT22;5030;51.532;6.766;2023-03-16T05:31:59;4.50;99.90
9980;DHT22;5030;51.532;6.766;2023-03-16T05:34:25;4.70;99.90
9980;DHT22;5030;51.532;6.766;2023-03-16T05:36:51;4.60;99.90
9980;DHT22;5030;51.532;6.766;2023-03-16T05:39:17;4.60;99.90
9980;DHT22;5030;51.532;6.766;2023-03-16T05:41:43;4.50;99.90
9980;DHT22;5030;51.532;6.766;2023-03-16T05:44:09;4.60;99.90
9980;DHT22;5030;51.532;6.766;2023-03-16T05:46:35;4.70;99.90
9980;DHT22;5030;51.532;6.766;2023-03-16T05:49:01;4.70;99.90
9980;DHT22;5030;51.532;6.766;2023-03-16T05:51:27;4.60;99.90
9980;DHT22;5030;51.532;6.766;2023-03-16T05:53:54;4.60;99.90
9980;DHT22;5030;51.532;6.766;2023-03-16T05:56:26;4.60;99.90
9980;DHT22;5030;51.532;6.766;2023-03-16T05:58:53;4.60;99.90
9980;DHT22;5030;51.532;6.766;2023-03-16T06:01:20;4.50;99.90
9980;DHT22;5030;51.532;6.766;2023-03-16T06:03:47;4.70;99.90
9980;DHT22;5030;51.532;6.766;2023-03-16T06:06:15;4.60;99.90
9980;DHT22;5030;51.532;6.766;2023-03-16T06:08:41;4.50;99.90
9980;DHT22;5030;51.532;6.766;2023-03-16T06:11:06;4.70;99.90
9980;DHT22;5030;51.532;6.766;2023-03-16T06:13:32;4.70;99.90
9980;DHT22;5030;51.532;6.766;2023-03-16T06:15:58;4.80;99.90
9980;DHT22;5030;51.532;6.766;2023-03-16T06:18:23;4.90;99.90
9980;DHT22;5030;51.532;6.766;2023-03-16T06:20:49;4.90;99.90
9980;DHT22;5030;51.532;6.766;2023-03-16T06:23:15;5.10;99.90
9980;DHT22;5030;51.532;6.766;2023-03-16T06:25:41;5.10;99.90
9980;DHT22;5030;51.532;6.766;2023-03-16T06:28:07;5.00;99.90
9980;DHT22;5030;51.532;6.766;2023-03-16T06:30:33;5.10;99.90
9980;DHT22;5030;51.532;6.766;2023-03-16T06:32:58;5.00;99.90
9980;DHT22;5030;51.532;6.766;2023-03-16T06:35:25;5.20;99.90
9980;DHT22;5030;51.532;6.766;2023-03-16T06:37:51;5.20;99.90
9980;DHT22;5030;51.532;6.766;2023-03-16T06:40:16;5.30;99.90
9980;DHT22;5030;51.532;6.766;2023-03-16T06:42:42;5.10;99.90
9980;DHT22;5030;51.532;6.766;2023-03-16T06:45:10;5.30;99.90
9980;DHT22;5030;51.532;6.766;2023-03-16T06:47:36;5.40;99.90
9980;DHT22;5030;51.532;6.766;2023-03-16T06:50:02;5.30;99.90
9980;DHT22;5030;51.532;6.766;2023-03-16T06:52:28;5.30;99.60
9980;DHT22;5030;51.532;6.766;2023-03-16T06:54:54;5.50;99.60
9980;DHT22;5030;51.532;6.766;2023-03-16T06:57:20;5.50;98.80
9980;DHT22;5030;51.532;6.766;2023-03-16T06:59:46;5.60;97.70
9980;DHT22;5030;51.532;6.766;2023-03-16T07:02:12;5.80;98.20
9980;DHT22;5030;51.532;6.766;2023-03-16T07:04:39;5.80;94.40
9980;DHT22;5030;51.532;6.766;2023-03-16T07:07:06;6.10;94.50
9980;DHT22;5030;51.532;6.766;2023-03-16T07:09:32;6.10;92.00
9980;DHT22;5030;51.532;6.766;2023-03-16T07:11:57;6.10;91.60
9980;DHT22;5030;51.532;6.766;2023-03-16T07:14:23;6.10;91.00
9980;DHT22;5030;51.532;6.766;2023-03-16T07:16:50;6.20;90.80
9980;DHT22;5030;51.532;6.766;2023-03-16T07:19:17;6.20;91.10
9980;DHT22;5030;51.532;6.766;2023-03-16T07:21:43;6.30;91.40
9980;DHT22;5030;51.532;6.766;2023-03-16T07:24:09;6.30;87.50
9980;DHT22;5030;51.532;6.766;2023-03-16T07:26:36;6.30;85.80
9980;DHT22;5030;51.532;6.766;2023-03-16T07:29:02;6.40;80.50
9980;DHT22;5030;51.532;6.766;2023-03-16T07:31:30;6.40;80.60
9980;DHT22;5030;51.532;6.766;2023-03-16T07:33:57;6.40;86.50
9980;DHT22;5030;51.532;6.766;2023-03-16T07:36:22;6.50;75.60
9980;DHT22;5030;51.532;6.766;2023-03-16T07:38:48;6.50;78.70
9980;DHT22;5030;51.532;6.766;2023-03-16T07:41:14;6.70;76.60
9980;DHT22;5030;51.532;6.766;2023-03-16T07:43:40;6.80;71.00
9980;DHT22;5030;51.532;6.766;2023-03-16T07:46:05;6.90;70.10
9980;DHT22;5030;51.532;6.766;2023-03-16T07:48:31;7.00;65.00
9980;DHT22;5030;51.532;6.766;2023-03-16T07:50:57;7.00;69.10
9980;DHT22;5030;51.532;6.766;2023-03-16T07:53:22;7.10;67.30
9980;DHT22;5030;51.532;6.766;2023-03-16T07:55:48;7.00;61.50
9980;DHT22;5030;51.532;6.766;2023-03-16T07:58:14;6.90;66.40
9980;DHT22;5030;51.532;6.766;2023-03-16T08:00:39;6.90;63.80
9980;DHT22;5030;51.532;6.766;2023-03-16T08:03:07;7.00;68.20
9980;DHT22;5030;51.532;6.766;2023-03-16T08:05:33;6.90;64.30
9980;DHT22;5030;51.532;6.766;2023-03-16T08:07:58;6.80;70.00
9980;DHT22;5030;51.532;6.766;2023-03-16T08:10:26;6.80;75.10
9980;DHT22;5030;51.532;6.766;2023-03-16T08:12:52;6.90;78.80
9980;DHT22;5030;51.532;6.766;2023-03-16T08:15:18;6.70;73.00
9980;DHT22;5030;51.532;6.766;2023-03-16T08:17:46;6.80;71.80
9980;DHT22;5030;51.532;6.766;2023-03-16T08:20:13;6.70;74.20
9980;DHT22;5030;51.532;6.766;2023-03-16T08:22:41;6.60;74.30
9980;DHT22;5030;51.532;6.766;2023-03-16T08:25:11;6.70;76.50
9980;DHT22;5030;51.532;6.766;2023-03-16T08:27:37;6.70;78.40
9980;DHT22;5030;51.532;6.766;2023-03-16T08:30:07;6.80;69.60
9980;DHT22;5030;51.532;6.766;2023-03-16T08:32:36;6.80;77.00
9980;DHT22;5030;51.532;6.766;2023-03-16T08:35:04;6.80;73.40
9980;DHT22;5030;51.532;6.766;2023-03-16T08:37:31;6.80;78.90
9980;DHT22;5030;51.532;6.766;2023-03-16T08:39:56;6.80;77.00
9980;DHT22;5030;51.532;6.766;2023-03-16T08:42:25;6.80;73.20
9980;DHT22;5030;51.532;6.766;2023-03-16T08:44:55;6.70;74.90
9980;DHT22;5030;51.532;6.766;2023-03-16T08:47:21;6.70;72.20
9980;DHT22;5030;51.532;6.766;2023-03-16T08:49:48;6.80;74.00
9980;DHT22;5030;51.532;6.766;2023-03-16T08:52:15;6.80;72.50
9980;DHT22;5030;51.532;6.766;2023-03-16T08:54:41;6.80;74.40
9980;DHT22;5030;51.532;6.766;2023-03-16T08:57:08;6.80;70.40
9980;DHT22;5030;51.532;6.766;2023-03-16T08:59:35;6.90;71.20
9980;DHT22;5030;51.532;6.766;2023-03-16T09:02:01;7.00;73.10
9980;DHT22;5030;51.532;6.766;2023-03-16T09:04:28;7.00;72.00
9980;DHT22;5030;51.532;6.766;2023-03-16T09:06:55;7.00;72.70
9980;DHT22;5030;51.532;6.766;2023-03-16T09:09:20;7.00;72.60
9980;DHT22;5030;51.532;6.766;2023-03-16T09:11:47;7.10;77.90
9980;DHT22;5030;51.532;6.766;2023-03-16T09:14:14;7.10;80.60
9980;DHT22;5030;51.532;6.766;2023-03-16T09:16:40;7.20;83.90
9980;DHT22;5030;51.532;6.766;2023-03-16T09:19:06;7.30;81.60
9980;DHT22;5030;51.532;6.766;2023-03-16T09:21:32;7.40;81.10
9980;DHT22;5030;51.532;6.766;2023-03-16T09:24:00;7.70;78.90
9980;DHT22;5030;51.532;6.766;2023-03-16T09:26:26;7.60;80.10
9980;DHT22;5030;51.532;6.766;2023-03-16T09:28:53;7.70;75.40
9980;DHT22;5030;51.532;6.766;2023-03-16T09:31:19;7.80;77.90
9980;DHT22;5030;51.532;6.766;2023-03-16T09:33:46;8.00;78.30
9980;DHT22;5030;51.532;6.766;2023-03-16T09:36:13;8.20;81.50
9980;DHT22;5030;51.532;6.766;2023-03-16T09:38:39;8.20;77.00
9980;DHT22;5030;51.532;6.766;2023-03-16T09:46:41;8.30;77.80
9980;DHT22;5030;51.532;6.766;2023-03-16T09:49:10;8.40;66.10
9980;DHT22;5030;51.532;6.766;2023-03-16T10:06:10;8.90;47.30
9980;DHT22;5030;51.532;6.766;2023-03-16T10:08:40;8.80;52.30
9980;DHT22;5030;51.532;6.766;2023-03-16T10:14:06;9.00;51.20
9980;DHT22;5030;51.532;6.766;2023-03-16T10:16:39;9.00;52.10
9980;DHT22;5030;51.532;6.766;2023-03-16T10:19:24;9.00;49.70
9980;DHT22;5030;51.532;6.766;2023-03-16T10:21:55;9.10;46.30
9980;DHT22;5030;51.532;6.766;2023-03-16T10:24:51;9.10;47.50
9980;DHT22;5030;51.532;6.766;2023-03-16T10:27:28;9.00;46.60
9980;DHT22;5030;51.532;6.766;2023-03-16T10:29:54;9.00;46.80
9980;DHT22;5030;51.532;6.766;2023-03-16T10:32:20;9.10;47.90
9980;DHT22;5030;51.532;6.766;2023-03-16T10:35:02;9.10;42.60
9980;DHT22;5030;51.532;6.766;2023-03-16T10:37:31;9.10;43.60
9980;DHT22;5030;51.532;6.766;2023-03-16T10:39:58;9.10;48.40
9980;DHT22;5030;51.532;6.766;2023-03-16T10:42:25;9.20;42.60
9980;DHT22;5030;51.532;6.766;2023-03-16T10:44:56;9.10;43.90
9980;DHT22;5030;51.532;6.766;2023-03-16T10:47:28;9.30;49.10
9980;DHT22;5030;51.532;6.766;2023-03-16T10:49:56;9.70;40.80
9980;DHT22;5030;51.532;6.766;2023-03-16T10:52:24;9.90;32.90
9980;DHT22;5030;51.532;6.766;2023-03-16T10:55:05;10.20;28.90
9980;DHT22;5030;51.532;6.766;2023-03-16T10:57:39;10.40;29.20
9980;DHT22;5030;51.532;6.766;2023-03-16T11:00:13;10.40;22.00
9980;DHT22;5030;51.532;6.766;2023-03-16T11:02:49;10.30;23.40
9980;DHT22;5030;51.532;6.766;2023-03-16T11:05:26;10.40;23.00
9980;DHT22;5030;51.532;6.766;2023-03-16T11:10:34;10.50;20.50
9980;DHT22;5030;51.532;6.766;2023-03-16T11:13:01;10.80;14.10
9980;DHT22;5030;51.532;6.766;2023-03-16T11:15:36;10.80;13.70
9980;DHT22;5030;51.532;6.766;2023-03-16T11:18:03;10.70;11.50
9980;DHT22;5030;51.532;6.766;2023-03-16T11:20:32;10.80;9.30
9980;DHT22;5030;51.532;6.766;2023-03-16T11:22:59;10.90;12.40
9980;DHT22;5030;51.532;6.766;2023-03-16T11:25:35;11.00;7.80
9980;DHT22;5030;51.532;6.766;2023-03-16T11:28:12;11.10;2.90
9980;DHT22;5030;51.532;6.766;2023-03-16T11:33:20;11.40;1.00
9980;DHT22;5030;51.532;6.766;2023-03-16T11:36:16;11.40;1.00
9980;DHT22;5030;51.532;6.766;2023-03-16T11:44:45;11.60;1.00
9980;DHT22;5030;51.532;6.766;2023-03-16T11:47:34;11.80;1.00
9980;DHT22;5030;51.532;6.766;2023-03-16T12:01:17;11.50;1.00
9980;DHT22;5030;51.532;6.766;2023-03-16T12:07:07;11.60;1.00
9980;DHT22;5030;51.532;6.766;2023-03-16T12:17:47;12.40;1.00
9980;DHT22;5030;51.532;6.766;2023-03-16T12:20:21;12.10;1.00
9980;DHT22;5030;51.532;6.766;2023-03-16T12:23:38;12.10;1.00
9980;DHT22;5030;51.532;6.766;2023-03-16T12:26:01;12.30;1.00
9980;DHT22;5030;51.532;6.766;2023-03-16T12:28:28;12.20;1.00
9980;DHT22;5030;51.532;6.766;2023-03-16T12:39:21;12.10;1.00
9980;DHT22;5030;51.532;6.766;2023-03-16T12:42:12;12.30;1.00
9980;DHT22;5030;51.532;6.766;2023-03-16T12:44:50;12.30;1.00
9980;DHT22;5030;51.532;6.766;2023-03-16T12:47:40;12.30;1.00
9980;DHT22;5030;51.532;6.766;2023-03-16T12:50:13;12.50;1.00
9980;DHT22;5030;51.532;6.766;2023-03-16T12:52:49;12.50;1.00
9980;DHT22;5030;51.532;6.766;2023-03-16T12:55:19;12.60;1.00
9980;DHT22;5030;51.532;6.766;2023-03-16T12:57:47;12.50;1.00
9980;DHT22;5030;51.532;6.766;2023-03-16T13:00:16;12.60;1.00
9980;DHT22;5030;51.532;6.766;2023-03-16T13:02:55;12.60;1.00
9980;DHT22;5030;51.532;6.766;2023-03-16T13:05:35;12.70;1.00
9980;DHT22;5030;51.532;6.766;2023-03-16T13:08:13;12.70;1.00
9980;DHT22;5030;51.532;6.766;2023-03-16T13:10:40;12.60;1.00
9980;DHT22;5030;51.532;6.766;2023-03-16T13:15:33;13.20;1.00
9980;DHT22;5030;51.532;6.766;2023-03-16T13:18:20;13.50;1.00
9980;DHT22;5030;51.532;6.766;2023-03-16T13:28:36;13.40;1.00
9980;DHT22;5030;51.532;6.766;2023-03-16T13:31:27;13.60;1.00
9980;DHT22;5030;51.532;6.766;2023-03-16T13:33:55;13.90;1.00
9980;DHT22;5030;51.532;6.766;2023-03-16T13:36:26;14.10;1.00
9980;DHT22;5030;51.532;6.766;2023-03-16T13:41:39;14.40;1.00
9980;DHT22;5030;51.532;6.766;2023-03-16T13:44:13;14.70;1.00
9980;DHT22;5030;51.532;6.766;2023-03-16T13:46:39;14.90;1.00
9980;DHT22;5030;51.532;6.766;2023-03-16T13:49:05;15.00;1.00
9980;DHT22;5030;51.532;6.766;2023-03-16T13:51:33;15.10;1.00
9980;DHT22;5030;51.532;6.766;2023-03-16T13:54:06;15.00;1.00
9980;DHT22;5030;51.532;6.766;2023-03-16T13:56:41;14.90;1.00
9980;DHT22;5030;51.532;6.766;2023-03-16T13:59:08;15.00;1.00
9980;DHT22;5030;51.532;6.766;2023-03-16T14:01:36;15.10;1.00
9980;DHT22;5030;51.532;6.766;2023-03-16T14:04:09;15.20;1.00
9980;DHT22;5030;51.532;6.766;2023-03-16T14:06:38;14.70;1.00
9980;DHT22;5030;51.532;6.766;2023-03-16T14:09:12;14.70;1.00
9980;DHT22;5030;51.532;6.766;2023-03-16T14:11:39;15.00;1.00
9980;DHT22;5030;51.532;6.766;2023-03-16T14:14:45;15.10;1.00
9980;DHT22;5030;51.532;6.766;2023-03-16T14:17:16;15.40;1.00
9980;DHT22;5030;51.532;6.766;2023-03-16T14:19:50;15.50;1.00
9980;DHT22;5030;51.532;6.766;2023-03-16T14:22:26;15.80;1.00
9980;DHT22;5030;51.532;6.766;2023-03-16T14:24:56;15.60;1.00
9980;DHT22;5030;51.532;6.766;2023-03-16T14:30:21;15.50;1.00
9980;DHT22;5030;51.532;6.766;2023-03-16T14:33:02;15.70;1.00
9980;DHT22;5030;51.532;6.766;2023-03-16T14:35:39;15.70;1.00
9980;DHT22;5030;51.532;6.766;2023-03-16T14:38:30;15.70;1.00
9980;DHT22;5030;51.532;6.766;2023-03-16T14:41:18;15.50;1.00
9980;DHT22;5030;51.532;6.766;2023-03-16T14:43:53;15.50;1.00
9980;DHT22;5030;51.532;6.766;2023-03-16T14:46:31;15.50;1.00
9980;DHT22;5030;51.532;6.766;2023-03-16T14:51:43;15.20;1.00
9980;DHT22;5030;51.532;6.766;2023-03-16T14:54:15;15.20;1.00
9980;DHT22;5030;51.532;6.766;2023-03-16T14:56:41;15.30;1.00
9980;DHT22;5030;51.532;6.766;2023-03-16T14:59:08;15.50;1.00
9980;DHT22;5030;51.532;6.766;2023-03-16T15:01:35;15.70;1.00
9980;DHT22;5030;51.532;6.766;2023-03-16T15:04:01;15.60;1.00
9980;DHT22;5030;51.532;6.766;2023-03-16T15:06:28;15.50;1.00
9980;DHT22;5030;51.532;6.766;2023-03-16T15:08:56;15.40;1.00
9980;DHT22;5030;51.532;6.766;2023-03-16T15:11:21;15.50;1.00
9980;DHT22;5030;51.532;6.766;2023-03-16T15:13:49;15.20;1.00
9980;DHT22;5030;51.532;6.766;2023-03-16T15:16:15;15.30;1.00
9980;DHT22;5030;51.532;6.766;2023-03-16T15:18:41;15.40;1.00
9980;DHT22;5030;51.532;6.766;2023-03-16T15:21:17;15.60;1.00
9980;DHT22;5030;51.532;6.766;2023-03-16T15:23:44;15.70;1.00
9980;DHT22;5030;51.532;6.766;2023-03-16T15:26:12;15.40;1.00
9980;DHT22;5030;51.532;6.766;2023-03-16T15:28:39;15.40;1.00
9980;DHT22;5030;51.532;6.766;2023-03-16T15:31:05;15.20;1.00
9980;DHT22;5030;51.532;6.766;2023-03-16T15:33:31;15.40;1.00
9980;DHT22;5030;51.532;6.766;2023-03-16T15:35:58;15.10;1.00
9980;DHT22;5030;51.532;6.766;2023-03-16T15:38:28;15.00;1.00
9980;DHT22;5030;51.532;6.766;2023-03-16T15:40:54;14.90;1.00
9980;DHT22;5030;51.532;6.766;2023-03-16T15:43:22;15.10;1.00
9980;DHT22;5030;51.532;6.766;2023-03-16T15:45:49;15.00;1.00
9980;DHT22;5030;51.532;6.766;2023-03-16T15:48:17;14.70;1.00
9980;DHT22;5030;51.532;6.766;2023-03-16T15:53:38;15.00;1.00
9980;DHT22;5030;51.532;6.766;2023-03-16T15:56:08;14.90;1.00
9980;DHT22;5030;51.532;6.766;2023-03-16T15:58:36;14.90;1.00
9980;DHT22;5030;51.532;6.766;2023-03-16T16:01:04;14.40;1.00
9980;DHT22;5030;51.532;6.766;2023-03-16T16:03:31;14.40;1.00
9980;DHT22;5030;51.532;6.766;2023-03-16T16:05:58;14.30;1.00
9980;DHT22;5030;51.532;6.766;2023-03-16T16:08:23;14.40;1.00
9980;DHT22;5030;51.532;6.766;2023-03-16T16:10:50;14.50;1.00
9980;DHT22;5030;51.532;6.766;2023-03-16T16:13:35;14.50;1.00
9980;DHT22;5030;51.532;6.766;2023-03-16T16:16:01;14.40;1.00
9980;DHT22;5030;51.532;6.766;2023-03-16T16:18:29;14.30;1.00
9980;DHT22;5030;51.532;6.766;2023-03-16T16:21:01;14.40;1.00
9980;DHT22;5030;51.532;6.766;2023-03-16T16:23:27;14.50;1.00
9980;DHT22;5030;51.532;6.766;2023-03-16T16:25:56;14.60;1.00
9980;DHT22;5030;51.532;6.766;2023-03-16T16:28:24;14.50;1.00
9980;DHT22;5030;51.532;6.766;2023-03-16T16:30:54;14.40;1.00
9980;DHT22;5030;51.532;6.766;2023-03-16T16:33:31;14.30;1.00
9980;DHT22;5030;51.532;6.766;2023-03-16T16:36:02;14.10;1.00
9980;DHT22;5030;51.532;6.766;2023-03-16T16:38:31;14.00;1.00
9980;DHT22;5030;51.532;6.766;2023-03-16T16:40:59;13.80;1.00
9980;DHT22;5030;51.532;6.766;2023-03-16T16:43:46;13.70;1.00
9980;DHT22;5030;51.532;6.766;2023-03-16T16:46:14;13.50;1.00
9980;DHT22;5030;51.532;6.766;2023-03-16T16:51:35;13.00;1.00
9980;DHT22;5030;51.532;6.766;2023-03-16T16:54:01;12.70;1.00
9980;DHT22;5030;51.532;6.766;2023-03-16T16:56:34;12.50;1.00
9980;DHT22;5030;51.532;6.766;2023-03-16T16:59:16;12.30;1.00
9980;DHT22;5030;51.532;6.766;2023-03-16T17:01:43;12.10;1.00
9980;DHT22;5030;51.532;6.766;2023-03-16T17:04:18;12.00;1.00
9980;DHT22;5030;51.532;6.766;2023-03-16T17:06:47;11.90;1.00
9980;DHT22;5030;51.532;6.766;2023-03-16T17:09:15;11.90;1.00
9980;DHT22;5030;51.532;6.766;2023-03-16T17:11:42;11.80;1.00
9980;DHT22;5030;51.532;6.766;2023-03-16T17:14:16;11.80;1.00
9980;DHT22;5030;51.532;6.766;2023-03-16T17:16:42;11.60;1.00
9980;DHT22;5030;51.532;6.766;2023-03-16T17:19:19;11.50;1.00
9980;DHT22;5030;51.532;6.766;2023-03-16T17:21:46;11.40;1.00
9980;DHT22;5030;51.532;6.766;2023-03-16T17:24:13;11.40;1.00
9980;DHT22;5030;51.532;6.766;2023-03-16T17:26:52;11.20;1.00
9980;DHT22;5030;51.532;6.766;2023-03-16T17:29:31;11.10;1.00
9980;DHT22;5030;51.532;6.766;2023-03-16T17:32:03;11.10;1.00
9980;DHT22;5030;51.532;6.766;2023-03-16T17:34:31;11.10;1.00
9980;DHT22;5030;51.532;6.766;2023-03-16T17:36:58;11.10;1.00
9980;DHT22;5030;51.532;6.766;2023-03-16T17:39:26;11.00;1.00
9980;DHT22;5030;51.532;6.766;2023-03-16T17:41:57;10.90;1.00
9980;DHT22;5030;51.532;6.766;2023-03-16T17:44:25;10.80;1.00
9980;DHT22;5030;51.532;6.766;2023-03-16T17:46:51;10.80;1.00
9980;DHT22;5030;51.532;6.766;2023-03-16T17:49:17;10.70;1.00
9980;DHT22;5030;51.532;6.766;2023-03-16T17:51:44;10.50;1.00
9980;DHT22;5030;51.532;6.766;2023-03-16T17:54:11;10.40;5.80
9980;DHT22;5030;51.532;6.766;2023-03-16T17:56:38;10.40;12.10
9980;DHT22;5030;51.532;6.766;2023-03-16T17:59:15;10.40;18.00
9980;DHT22;5030;51.532;6.766;2023-03-16T18:01:43;10.40;10.50
9980;DHT22;5030;51.532;6.766;2023-03-16T18:04:24;10.50;17.70
9980;DHT22;5030;51.532;6.766;2023-03-16T18:06:51;10.40;13.20
9980;DHT22;5030;51.532;6.766;2023-03-16T18:09:18;10.30;16.90
9980;DHT22;5030;51.532;6.766;2023-03-16T18:11:49;10.40;19.90
9980;DHT22;5030;51.532;6.766;2023-03-16T18:14:33;10.40;17.70